createdAt,value
2023-03-17T00:01:28.233Z,101195.84
2023-03-17T00:06:33.886Z,101188.14
2023-03-17T00:11:36.569Z,101186.78
2023-03-17T00:16:42.988Z,101184.92
2023-03-17T00:21:47.160Z,101181.66
2023-03-17T00:26:50.268Z,101182.69
2023-03-17T00:31:53.811Z,101184.59
2023-03-17T00:36:56.515Z,101178.25
2023-03-17T00:41:59.835Z,101171.41
2023-03-17T00:47:02.872Z,101177.39
2023-03-17T00:52:06.221Z,101180.80
2023-03-17T00:57:10.922Z,101173.12
2023-03-17T01:02:14.066Z,101175.00
2023-03-17T01:07:17.242Z,101174.82
2023-03-17T01:12:20.829Z,101180.13
2023-03-17T01:17:23.889Z,101176.20
2023-03-17T01:22:26.711Z,101178.25
2023-03-17T01:27:35.101Z,101185.94
2023-03-17T01:32:37.820Z,101181.84
2023-03-17T01:37:43.010Z,101181.84
2023-03-17T01:43:04.552Z,101177.56
2023-03-17T01:48:07.571Z,101178.76
2023-03-17T01:53:11.817Z,101174.48
2023-03-17T01:58:17.188Z,101175.16
2023-03-17T02:03:20.282Z,101179.77
2023-03-17T02:08:22.964Z,101181.33
2023-03-17T02:13:27.112Z,101178.41
2023-03-17T02:18:30.009Z,101179.77
2023-03-17T02:23:32.873Z,101182.50
2023-03-17T02:28:35.818Z,101185.41
2023-03-17T02:33:41.278Z,101187.98
2023-03-17T02:38:44.057Z,101178.91
2023-03-17T02:43:47.012Z,101184.40
2023-03-17T02:48:50.335Z,101181.84
2023-03-17T02:53:53.126Z,101184.73
2023-03-17T02:58:56.131Z,101180.11
2023-03-17T03:03:58.938Z,101182.69
2023-03-17T03:09:01.916Z,101180.30
2023-03-17T03:14:05.549Z,101179.09
2023-03-17T03:19:08.210Z,101177.39
2023-03-17T03:24:11.755Z,101177.56
2023-03-17T03:29:14.534Z,101178.76
2023-03-17T03:34:17.262Z,101173.63
2023-03-17T03:39:19.966Z,101161.83
2023-03-17T03:44:22.847Z,101157.55
2023-03-17T03:49:25.598Z,101150.20
2023-03-17T03:54:28.250Z,101156.52
2023-03-17T03:59:30.932Z,101154.64
2023-03-17T04:04:34.281Z,101157.04
2023-03-17T04:09:37.365Z,101162.00
2023-03-17T04:14:40.046Z,101161.98
2023-03-17T04:19:43.178Z,101161.14
2023-03-17T04:24:46.192Z,101165.60
2023-03-17T04:29:49.705Z,101150.02
2023-03-17T04:34:52.488Z,101155.84
2023-03-17T04:39:55.954Z,101159.60
2023-03-17T04:44:58.820Z,101162.68
2023-03-17T04:50:02.254Z,101169.02
2023-03-17T04:55:08.376Z,101170.88
2023-03-17T05:00:12.804Z,101168.84
2023-03-17T05:05:15.636Z,101169.35
2023-03-17T05:10:18.366Z,101170.38
2023-03-17T05:15:21.446Z,101170.72
2023-03-17T05:20:24.162Z,101169.00
2023-03-17T05:25:26.867Z,101168.30
2023-03-17T05:30:30.756Z,101173.44
2023-03-17T05:35:33.943Z,101165.20
2023-03-17T05:40:37.114Z,101170.34
2023-03-17T05:45:40.340Z,101178.91
2023-03-17T05:50:43.634Z,101184.20
2023-03-17T05:55:47.160Z,101177.68
2023-03-17T06:00:50.328Z,101175.11
2023-03-17T06:05:53.276Z,101176.80
2023-03-17T06:10:56.784Z,101180.55
2023-03-17T06:15:59.891Z,101182.77
2023-03-17T06:21:02.902Z,101202.44
2023-03-17T06:26:06.498Z,101203.27
2023-03-17T06:31:09.501Z,101196.38
2023-03-17T06:36:12.457Z,101196.84
2023-03-17T06:41:15.567Z,101200.41
2023-03-17T06:46:18.535Z,101205.01
2023-03-17T06:51:21.555Z,101196.05
2023-03-17T06:56:30.361Z,101193.03
2023-03-17T07:01:33.741Z,101199.80
2023-03-17T07:06:36.824Z,101201.23
2023-03-17T07:11:39.661Z,101190.34
2023-03-17T07:16:42.420Z,101175.69
2023-03-17T07:21:46.952Z,101182.48
2023-03-17T07:26:49.930Z,101180.11
2023-03-17T07:31:53.948Z,101189.17
2023-03-17T07:36:56.832Z,101186.46
2023-03-17T07:42:00.112Z,101184.09
2023-03-17T07:47:02.904Z,101183.77
2023-03-17T07:52:06.836Z,101185.77
2023-03-17T07:57:22.181Z,101193.36
2023-03-17T08:02:26.349Z,101195.69
2023-03-17T08:07:31.752Z,101191.02
2023-03-17T08:12:35.427Z,101193.88
2023-03-17T08:17:40.078Z,101195.55
2023-03-17T08:22:44.265Z,101188.79
2023-03-17T08:27:47.454Z,101192.16
2023-03-17T08:32:55.551Z,101185.02
2023-03-17T08:38:05.292Z,101184.31
2023-03-17T08:43:25.808Z,101176.55
2023-03-17T08:48:32.670Z,101176.04
2023-03-17T09:00:12.285Z,101176.54
2023-03-17T09:04:54.630Z,101178.10
2023-03-17T09:10:08.814Z,101176.13
2023-03-17T09:15:13.129Z,101167.38
2023-03-17T09:20:18.779Z,101169.72
2023-03-17T09:25:22.508Z,101173.38
2023-03-17T09:30:35.062Z,101159.30
2023-03-17T09:35:56.959Z,101149.92
2023-03-17T09:41:52.173Z,101144.81
2023-03-17T09:47:29.487Z,101145.89
2023-03-17T09:52:35.393Z,101140.88
2023-03-17T09:58:01.007Z,101129.38
2023-03-17T10:03:10.450Z,101125.60
2023-03-17T10:08:31.705Z,101128.41
2023-03-17T10:14:01.251Z,101122.98
2023-03-17T10:19:17.806Z,101114.46
2023-03-17T10:24:23.265Z,101113.95
2023-03-17T10:29:28.118Z,101117.11
2023-03-17T10:35:00.569Z,101110.85
2023-03-17T10:40:23.497Z,101097.12
2023-03-17T10:46:05.325Z,101083.73
2023-03-17T10:51:32.565Z,101082.77
2023-03-17T10:56:43.329Z,101067.77
2023-03-17T11:01:58.525Z,101070.02
2023-03-17T11:07:18.285Z,101065.36
2023-03-17T11:12:28.079Z,101060.45
2023-03-17T11:17:58.250Z,101063.83
2023-03-17T11:23:13.210Z,101054.64
2023-03-17T11:28:27.095Z,101042.33
2023-03-17T11:33:33.906Z,101040.99
2023-03-17T11:39:12.945Z,101030.17
2023-03-17T11:44:40.516Z,101017.48
2023-03-17T11:49:47.283Z,101016.11
2023-03-17T11:55:17.742Z,101015.69
2023-03-17T12:00:29.986Z,101009.52
2023-03-17T12:05:35.122Z,101000.62
2023-03-17T12:10:52.985Z,100992.98
2023-03-17T12:15:58.364Z,100990.31
2023-03-17T12:21:09.025Z,100979.09
2023-03-17T12:26:57.795Z,100968.98
2023-03-17T12:32:08.456Z,100957.48
2023-03-17T12:37:11.575Z,100942.23
2023-03-17T12:42:23.677Z,100927.52
2023-03-17T12:47:48.177Z,100929.77
2023-03-17T12:53:19.941Z,100930.90
2023-03-17T12:58:40.660Z,100919.64
2023-03-17T13:04:12.764Z,100900.94
2023-03-17T13:09:30.962Z,100901.07
2023-03-17T13:14:47.457Z,100900.52
2023-03-17T13:20:12.114Z,100904.82
2023-03-17T13:25:29.814Z,100901.16
2023-03-17T13:30:39.944Z,100900.80
2023-03-17T13:35:58.676Z,100902.52
2023-03-17T13:41:17.203Z,100889.70
2023-03-17T13:46:27.483Z,100880.42
2023-03-17T13:51:34.554Z,100885.77
2023-03-17T13:56:40.521Z,100879.08
2023-03-17T14:02:00.043Z,100884.40
2023-03-17T14:07:14.300Z,100884.94
2023-03-17T14:12:31.794Z,100888.05
2023-03-17T14:17:46.749Z,100882.02
2023-03-17T14:23:00.261Z,100879.36
2023-03-17T14:28:11.081Z,100883.38
2023-03-17T14:33:25.935Z,100882.62
2023-03-17T14:38:34.457Z,100886.36
2023-03-17T14:43:37.261Z,100874.73
2023-03-17T14:48:42.900Z,100859.64
2023-03-17T14:53:46.759Z,100856.95
2023-03-17T14:58:52.440Z,100854.70
2023-03-17T15:04:13.714Z,100862.89
2023-03-17T15:09:28.615Z,100864.46
2023-03-17T15:14:40.209Z,100853.20
2023-03-17T15:19:45.913Z,100842.18
2023-03-17T15:25:04.820Z,100839.92
2023-03-17T15:30:08.216Z,100849.48
2023-03-17T15:35:14.265Z,100844.88
2023-03-17T15:40:17.390Z,100836.86
2023-03-17T15:45:20.156Z,100831.00
2023-03-17T15:50:26.521Z,100808.70
2023-03-17T15:55:30.670Z,100807.20
2023-03-17T16:00:34.901Z,100805.23
2023-03-17T16:05:37.852Z,100803.58
2023-03-17T16:10:41.446Z,100810.92
2023-03-17T16:15:57.224Z,100817.14
2023-03-17T16:21:01.597Z,100822.27
2023-03-17T16:26:14.981Z,100824.56
2023-03-17T16:31:24.280Z,100824.50
2023-03-17T16:36:27.077Z,100830.02
2023-03-17T16:41:35.161Z,100827.10
2023-03-17T16:46:39.491Z,100829.94
2023-03-17T16:51:43.332Z,100823.48
2023-03-17T16:56:46.058Z,100819.75
2023-03-17T17:01:48.788Z,100811.48
2023-03-17T17:06:51.629Z,100808.90
2023-03-17T17:11:54.808Z,100802.46
2023-03-17T17:16:57.509Z,100805.81
2023-03-17T17:22:00.268Z,100813.32
2023-03-17T17:27:02.983Z,100816.20
2023-03-17T17:32:06.332Z,100815.05
2023-03-17T17:37:10.392Z,100817.72
2023-03-17T17:42:13.200Z,100813.85
2023-03-17T17:47:16.234Z,100818.07
2023-03-17T17:52:19.767Z,100820.23
2023-03-17T17:57:22.505Z,100822.21
2023-03-17T18:02:25.669Z,100810.17
2023-03-17T18:07:28.415Z,100806.92
2023-03-17T18:12:31.746Z,100800.02
2023-03-17T18:17:35.320Z,100803.17
2023-03-17T18:22:38.206Z,100800.58
2023-03-17T18:27:41.630Z,100796.22
2023-03-17T18:32:45.511Z,100793.27
2023-03-17T18:37:50.622Z,100797.79
2023-03-17T18:42:53.951Z,100796.38
2023-03-17T18:47:56.656Z,100793.53
2023-03-17T18:52:59.321Z,100794.92
2023-03-17T18:58:02.052Z,100789.16
2023-03-17T19:03:04.807Z,100796.00
2023-03-17T19:08:08.064Z,100797.48
2023-03-17T19:13:10.776Z,100803.61
2023-03-17T19:18:13.475Z,100802.31
2023-03-17T19:23:16.463Z,100797.75
2023-03-17T19:28:19.335Z,100799.94
2023-03-17T19:33:22.536Z,100795.91
2023-03-17T19:38:27.122Z,100794.78
2023-03-17T19:43:40.253Z,100796.45
2023-03-17T19:48:43.756Z,100801.59
2023-03-17T19:53:46.459Z,100800.81
2023-03-17T19:58:49.718Z,100791.08
2023-03-17T20:03:52.406Z,100791.68
2023-03-17T20:08:55.117Z,100793.34
2023-03-17T20:13:57.819Z,100796.71
2023-03-17T20:19:01.980Z,100796.27
2023-03-17T20:24:05.567Z,100794.42
2023-03-17T20:29:08.467Z,100792.77
2023-03-17T20:34:11.756Z,100790.17
2023-03-17T20:39:19.874Z,100786.23
2023-03-17T20:44:24.101Z,100791.08
2023-03-17T20:49:27.869Z,100791.20
2023-03-17T20:54:30.598Z,100798.45
2023-03-17T20:59:34.675Z,100798.11
2023-03-17T21:04:37.679Z,100789.14
2023-03-17T21:09:41.398Z,100790.36
2023-03-17T21:14:44.678Z,100787.13
2023-03-17T21:19:47.553Z,100784.45
2023-03-17T21:24:51.707Z,100776.76
2023-03-17T21:29:55.638Z,100775.42
2023-03-17T21:34:58.434Z,100771.36
2023-03-17T21:40:05.288Z,100762.54
2023-03-17T21:45:09.124Z,100748.07
2023-03-17T21:50:12.028Z,100746.34
2023-03-17T21:55:16.372Z,100739.14
2023-03-17T22:00:23.618Z,100742.63
2023-03-17T22:05:27.511Z,100747.49
2023-03-17T22:10:30.837Z,100742.69
2023-03-17T22:15:33.845Z,100744.59
2023-03-17T22:20:36.872Z,100753.96
2023-03-17T22:25:39.558Z,100751.60
2023-03-17T22:30:44.241Z,100746.70
2023-03-17T22:35:47.012Z,100742.30
2023-03-17T22:41:00.720Z,100741.02
2023-03-17T22:46:05.818Z,100741.05
2023-03-17T22:51:11.824Z,100742.80
2023-03-17T22:56:16.457Z,100746.83
2023-03-17T23:01:20.628Z,100743.45
2023-03-17T23:06:24.942Z,100740.63
2023-03-17T23:11:28.256Z,100738.43
2023-03-17T23:16:32.234Z,100745.22
2023-03-17T23:21:38.340Z,100743.09
2023-03-17T23:26:41.100Z,100749.70
2023-03-17T23:31:43.861Z,100743.77
2023-03-17T23:36:46.975Z,100735.40
2023-03-17T23:41:50.084Z,100730.84
2023-03-17T23:46:53.000Z,100723.86
2023-03-17T23:51:55.725Z,100718.61
2023-03-17T23:56:58.530Z,100715.98
